sensor_id;sensor_type;location;lat;lon;timestamp;P1;durP1;ratioP1;P2;durP2;ratioP2
77123;SDS011;66079;47.646;19.130;2023-01-16T00:01:58;138.80;;;30.95;;
77123;SDS011;66079;47.646;19.130;2023-01-16T00:05:02;70.97;;;30.20;;
77123;SDS011;66079;47.646;19.130;2023-01-16T00:08:04;90.53;;;29.58;;
77123;SDS011;66079;47.646;19.130;2023-01-16T00:11:07;75.78;;;30.42;;
77123;SDS011;66079;47.646;19.130;2023-01-16T00:14:10;90.22;;;30.35;;
77123;SDS011;66079;47.646;19.130;2023-01-16T00:17:12;70.27;;;28.70;;
77123;SDS011;66079;47.646;19.130;2023-01-16T00:20:15;79.07;;;29.77;;
77123;SDS011;66079;47.646;19.130;2023-01-16T00:23:18;75.25;;;30.13;;
77123;SDS011;66079;47.646;19.130;2023-01-16T00:26:20;62.35;;;29.10;;
77123;SDS011;66079;47.646;19.130;2023-01-16T00:29:24;64.82;;;28.02;;
77123;SDS011;66079;47.646;19.130;2023-01-16T00:32:26;60.97;;;28.53;;
77123;SDS011;66079;47.646;19.130;2023-01-16T00:35:29;59.47;;;27.80;;
77123;SDS011;66079;47.646;19.130;2023-01-16T00:38:32;67.88;;;29.85;;
77123;SDS011;66079;47.646;19.130;2023-01-16T00:41:34;60.90;;;28.60;;
77123;SDS011;66079;47.646;19.130;2023-01-16T00:44:37;73.00;;;30.73;;
77123;SDS011;66079;47.646;19.130;2023-01-16T00:47:39;90.40;;;31.77;;
77123;SDS011;66079;47.646;19.130;2023-01-16T00:50:42;80.78;;;31.00;;
77123;SDS011;66079;47.646;19.130;2023-01-16T00:53:44;78.90;;;30.08;;
77123;SDS011;66079;47.646;19.130;2023-01-16T00:56:47;85.63;;;30.20;;
77123;SDS011;66079;47.646;19.130;2023-01-16T00:59:50;93.60;;;30.20;;
77123;SDS011;66079;47.646;19.130;2023-01-16T01:02:52;81.88;;;31.38;;
77123;SDS011;66079;47.646;19.130;2023-01-16T01:05:55;74.60;;;30.27;;
77123;SDS011;66079;47.646;19.130;2023-01-16T01:08:57;71.38;;;29.45;;
77123;SDS011;66079;47.646;19.130;2023-01-16T01:12:00;69.10;;;29.97;;
77123;SDS011;66079;47.646;19.130;2023-01-16T01:15:03;70.03;;;27.80;;
77123;SDS011;66079;47.646;19.130;2023-01-16T01:18:06;83.35;;;28.75;;
77123;SDS011;66079;47.646;19.130;2023-01-16T01:21:08;71.60;;;29.35;;
77123;SDS011;66079;47.646;19.130;2023-01-16T01:24:11;70.57;;;29.42;;
77123;SDS011;66079;47.646;19.130;2023-01-16T01:27:15;65.47;;;28.70;;
77123;SDS011;66079;47.646;19.130;2023-01-16T01:30:19;74.35;;;28.58;;
77123;SDS011;66079;47.646;19.130;2023-01-16T01:33:22;62.70;;;27.98;;
77123;SDS011;66079;47.646;19.130;2023-01-16T01:36:24;62.28;;;27.88;;
77123;SDS011;66079;47.646;19.130;2023-01-16T01:39:28;65.00;;;28.43;;
77123;SDS011;66079;47.646;19.130;2023-01-16T01:42:35;67.03;;;27.60;;
77123;SDS011;66079;47.646;19.130;2023-01-16T01:45:49;78.97;;;28.52;;
77123;SDS011;66079;47.646;19.130;2023-01-16T01:48:57;69.90;;;29.27;;
77123;SDS011;66079;47.646;19.130;2023-01-16T01:52:10;66.47;;;26.80;;
77123;SDS011;66079;47.646;19.130;2023-01-16T01:55:13;69.80;;;28.33;;
77123;SDS011;66079;47.646;19.130;2023-01-16T01:58:18;69.63;;;28.08;;
77123;SDS011;66079;47.646;19.130;2023-01-16T02:01:26;66.07;;;28.65;;
77123;SDS011;66079;47.646;19.130;2023-01-16T02:04:32;63.60;;;28.17;;
77123;SDS011;66079;47.646;19.130;2023-01-16T02:07:38;61.10;;;27.03;;
77123;SDS011;66079;47.646;19.130;2023-01-16T02:10:45;64.15;;;27.45;;
77123;SDS011;66079;47.646;19.130;2023-01-16T02:13:56;60.85;;;27.48;;
77123;SDS011;66079;47.646;19.130;2023-01-16T02:17:05;55.47;;;25.92;;
77123;SDS011;66079;47.646;19.130;2023-01-16T02:20:32;59.10;;;26.67;;
77123;SDS011;66079;47.646;19.130;2023-01-16T02:23:52;57.70;;;26.07;;
77123;SDS011;66079;47.646;19.130;2023-01-16T02:37:04;55.47;;;26.87;;
77123;SDS011;66079;47.646;19.130;2023-01-16T02:40:16;56.73;;;26.07;;
77123;SDS011;66079;47.646;19.130;2023-01-16T02:46:41;56.25;;;25.85;;
77123;SDS011;66079;47.646;19.130;2023-01-16T02:56:57;57.47;;;25.63;;
77123;SDS011;66079;47.646;19.130;2023-01-16T03:00:05;61.13;;;26.98;;
77123;SDS011;66079;47.646;19.130;2023-01-16T03:03:17;50.95;;;24.85;;
77123;SDS011;66079;47.646;19.130;2023-01-16T03:10:09;49.70;;;23.43;;
77123;SDS011;66079;47.646;19.130;2023-01-16T03:19:54;51.75;;;25.30;;
77123;SDS011;66079;47.646;19.130;2023-01-16T03:26:09;46.65;;;23.73;;
77123;SDS011;66079;47.646;19.130;2023-01-16T03:32:49;48.83;;;24.83;;
77123;SDS011;66079;47.646;19.130;2023-01-16T03:36:04;50.83;;;24.27;;
77123;SDS011;66079;47.646;19.130;2023-01-16T03:39:13;48.50;;;24.17;;
77123;SDS011;66079;47.646;19.130;2023-01-16T03:42:23;44.53;;;22.80;;
77123;SDS011;66079;47.646;19.130;2023-01-16T03:48:51;44.00;;;21.87;;
77123;SDS011;66079;47.646;19.130;2023-01-16T03:52:02;43.60;;;21.73;;
77123;SDS011;66079;47.646;19.130;2023-01-16T03:55:19;43.28;;;22.25;;
77123;SDS011;66079;47.646;19.130;2023-01-16T03:58:36;42.03;;;21.48;;
77123;SDS011;66079;47.646;19.130;2023-01-16T04:05:00;44.83;;;22.08;;
77123;SDS011;66079;47.646;19.130;2023-01-16T04:08:14;41.55;;;22.45;;
77123;SDS011;66079;47.646;19.130;2023-01-16T04:11:20;44.75;;;21.85;;
77123;SDS011;66079;47.646;19.130;2023-01-16T04:14:26;44.67;;;22.70;;
77123;SDS011;66079;47.646;19.130;2023-01-16T04:17:32;43.60;;;21.60;;
77123;SDS011;66079;47.646;19.130;2023-01-16T04:20:37;42.75;;;21.63;;
77123;SDS011;66079;47.646;19.130;2023-01-16T04:23:43;43.97;;;22.35;;
77123;SDS011;66079;47.646;19.130;2023-01-16T04:26:46;43.92;;;22.42;;
77123;SDS011;66079;47.646;19.130;2023-01-16T04:29:48;40.10;;;21.13;;
77123;SDS011;66079;47.646;19.130;2023-01-16T04:32:51;40.85;;;21.33;;
77123;SDS011;66079;47.646;19.130;2023-01-16T04:35:54;42.42;;;21.83;;
77123;SDS011;66079;47.646;19.130;2023-01-16T04:38:56;41.25;;;21.02;;
77123;SDS011;66079;47.646;19.130;2023-01-16T04:41:59;42.87;;;22.37;;
77123;SDS011;66079;47.646;19.130;2023-01-16T04:45:02;47.80;;;22.93;;
77123;SDS011;66079;47.646;19.130;2023-01-16T04:48:05;46.53;;;24.38;;
77123;SDS011;66079;47.646;19.130;2023-01-16T04:51:07;44.35;;;23.23;;
77123;SDS011;66079;47.646;19.130;2023-01-16T04:54:15;48.83;;;24.40;;
77123;SDS011;66079;47.646;19.130;2023-01-16T04:57:19;51.17;;;24.10;;
77123;SDS011;66079;47.646;19.130;2023-01-16T05:00:21;46.47;;;23.20;;
77123;SDS011;66079;47.646;19.130;2023-01-16T05:03:24;52.40;;;25.05;;
77123;SDS011;66079;47.646;19.130;2023-01-16T05:06:27;50.92;;;25.33;;
77123;SDS011;66079;47.646;19.130;2023-01-16T05:09:29;50.53;;;24.50;;
77123;SDS011;66079;47.646;19.130;2023-01-16T05:12:32;43.47;;;22.17;;
77123;SDS011;66079;47.646;19.130;2023-01-16T05:15:34;44.30;;;21.87;;
77123;SDS011;66079;47.646;19.130;2023-01-16T05:18:37;46.95;;;21.80;;
77123;SDS011;66079;47.646;19.130;2023-01-16T05:21:39;50.70;;;22.58;;
77123;SDS011;66079;47.646;19.130;2023-01-16T05:24:42;49.67;;;22.27;;
77123;SDS011;66079;47.646;19.130;2023-01-16T05:27:50;47.17;;;20.77;;
77123;SDS011;66079;47.646;19.130;2023-01-16T05:30:53;43.53;;;19.58;;
77123;SDS011;66079;47.646;19.130;2023-01-16T05:33:56;44.47;;;19.65;;
77123;SDS011;66079;47.646;19.130;2023-01-16T05:36:58;46.78;;;18.27;;
77123;SDS011;66079;47.646;19.130;2023-01-16T05:40:09;41.50;;;17.87;;
77123;SDS011;66079;47.646;19.130;2023-01-16T05:43:13;38.00;;;15.97;;
77123;SDS011;66079;47.646;19.130;2023-01-16T05:46:16;39.50;;;16.23;;
77123;SDS011;66079;47.646;19.130;2023-01-16T05:49:20;41.08;;;16.33;;
77123;SDS011;66079;47.646;19.130;2023-01-16T05:52:22;39.33;;;15.82;;
77123;SDS011;66079;47.646;19.130;2023-01-16T05:55:25;36.80;;;15.07;;
77123;SDS011;66079;47.646;19.130;2023-01-16T05:58:28;36.42;;;15.43;;
77123;SDS011;66079;47.646;19.130;2023-01-16T06:01:30;33.83;;;14.13;;
77123;SDS011;66079;47.646;19.130;2023-01-16T06:04:33;30.90;;;14.35;;
77123;SDS011;66079;47.646;19.130;2023-01-16T06:07:35;28.03;;;13.60;;
77123;SDS011;66079;47.646;19.130;2023-01-16T06:10:38;30.98;;;13.75;;
77123;SDS011;66079;47.646;19.130;2023-01-16T06:13:40;29.70;;;14.27;;
77123;SDS011;66079;47.646;19.130;2023-01-16T06:16:43;26.92;;;13.73;;
77123;SDS011;66079;47.646;19.130;2023-01-16T06:19:45;29.73;;;13.80;;
77123;SDS011;66079;47.646;19.130;2023-01-16T06:22:48;30.67;;;13.77;;
77123;SDS011;66079;47.646;19.130;2023-01-16T06:25:50;29.80;;;13.25;;
77123;SDS011;66079;47.646;19.130;2023-01-16T06:28:53;35.53;;;15.25;;
77123;SDS011;66079;47.646;19.130;2023-01-16T06:31:58;32.72;;;15.20;;
77123;SDS011;66079;47.646;19.130;2023-01-16T06:35:01;29.27;;;14.30;;
77123;SDS011;66079;47.646;19.130;2023-01-16T06:38:03;31.15;;;14.50;;
77123;SDS011;66079;47.646;19.130;2023-01-16T06:41:06;34.58;;;15.90;;
77123;SDS011;66079;47.646;19.130;2023-01-16T06:44:09;37.90;;;16.30;;
77123;SDS011;66079;47.646;19.130;2023-01-16T06:47:12;35.40;;;15.97;;
77123;SDS011;66079;47.646;19.130;2023-01-16T06:50:15;32.87;;;15.63;;
77123;SDS011;66079;47.646;19.130;2023-01-16T06:53:18;36.55;;;15.68;;
77123;SDS011;66079;47.646;19.130;2023-01-16T06:56:20;31.92;;;15.38;;
77123;SDS011;66079;47.646;19.130;2023-01-16T06:59:26;32.15;;;16.05;;
77123;SDS011;66079;47.646;19.130;2023-01-16T07:02:29;30.20;;;15.40;;
77123;SDS011;66079;47.646;19.130;2023-01-16T07:05:32;28.95;;;14.75;;
77123;SDS011;66079;47.646;19.130;2023-01-16T07:08:34;28.55;;;14.93;;
77123;SDS011;66079;47.646;19.130;2023-01-16T07:11:37;31.42;;;14.88;;
77123;SDS011;66079;47.646;19.130;2023-01-16T07:14:40;29.80;;;14.73;;
77123;SDS011;66079;47.646;19.130;2023-01-16T07:18:01;28.33;;;13.97;;
77123;SDS011;66079;47.646;19.130;2023-01-16T07:21:23;21.13;;;11.23;;
77123;SDS011;66079;47.646;19.130;2023-01-16T07:24:47;20.25;;;11.40;;
77123;SDS011;66079;47.646;19.130;2023-01-16T07:27:49;20.80;;;10.98;;
77123;SDS011;66079;47.646;19.130;2023-01-16T07:30:52;20.63;;;11.07;;
77123;SDS011;66079;47.646;19.130;2023-01-16T07:33:55;21.08;;;10.57;;
77123;SDS011;66079;47.646;19.130;2023-01-16T07:36:58;20.40;;;10.90;;
77123;SDS011;66079;47.646;19.130;2023-01-16T07:40:00;18.58;;;10.57;;
77123;SDS011;66079;47.646;19.130;2023-01-16T07:43:03;19.83;;;10.60;;
77123;SDS011;66079;47.646;19.130;2023-01-16T07:46:06;20.87;;;10.80;;
77123;SDS011;66079;47.646;19.130;2023-01-16T07:49:09;20.95;;;10.65;;
77123;SDS011;66079;47.646;19.130;2023-01-16T07:52:11;19.40;;;10.48;;
77123;SDS011;66079;47.646;19.130;2023-01-16T07:55:14;17.27;;;10.23;;
77123;SDS011;66079;47.646;19.130;2023-01-16T07:58:19;20.83;;;10.77;;
77123;SDS011;66079;47.646;19.130;2023-01-16T08:01:23;20.50;;;10.60;;
77123;SDS011;66079;47.646;19.130;2023-01-16T08:04:25;24.92;;;10.65;;
77123;SDS011;66079;47.646;19.130;2023-01-16T08:07:27;19.27;;;11.23;;
77123;SDS011;66079;47.646;19.130;2023-01-16T08:10:30;21.50;;;12.03;;
77123;SDS011;66079;47.646;19.130;2023-01-16T08:13:33;22.60;;;11.82;;
77123;SDS011;66079;47.646;19.130;2023-01-16T08:16:42;27.05;;;13.82;;
77123;SDS011;66079;47.646;19.130;2023-01-16T08:19:45;24.73;;;12.60;;
77123;SDS011;66079;47.646;19.130;2023-01-16T08:22:48;22.23;;;11.97;;
77123;SDS011;66079;47.646;19.130;2023-01-16T08:25:52;20.98;;;11.68;;
77123;SDS011;66079;47.646;19.130;2023-01-16T08:28:55;21.10;;;11.27;;
77123;SDS011;66079;47.646;19.130;2023-01-16T08:31:58;19.38;;;10.95;;
77123;SDS011;66079;47.646;19.130;2023-01-16T08:35:01;20.47;;;10.67;;
77123;SDS011;66079;47.646;19.130;2023-01-16T08:38:06;18.63;;;9.67;;
77123;SDS011;66079;47.646;19.130;2023-01-16T08:41:08;19.83;;;10.13;;
77123;SDS011;66079;47.646;19.130;2023-01-16T08:44:33;18.77;;;10.43;;
77123;SDS011;66079;47.646;19.130;2023-01-16T08:47:54;22.80;;;10.45;;
77123;SDS011;66079;47.646;19.130;2023-01-16T08:51:16;19.13;;;10.03;;
77123;SDS011;66079;47.646;19.130;2023-01-16T08:54:26;18.92;;;10.35;;
77123;SDS011;66079;47.646;19.130;2023-01-16T08:57:29;20.83;;;10.93;;
77123;SDS011;66079;47.646;19.130;2023-01-16T09:00:32;20.77;;;10.97;;
77123;SDS011;66079;47.646;19.130;2023-01-16T09:03:36;21.97;;;10.93;;
77123;SDS011;66079;47.646;19.130;2023-01-16T09:06:39;24.23;;;11.93;;
77123;SDS011;66079;47.646;19.130;2023-01-16T09:09:41;23.42;;;11.93;;
77123;SDS011;66079;47.646;19.130;2023-01-16T09:12:45;29.67;;;13.13;;
77123;SDS011;66079;47.646;19.130;2023-01-16T09:16:06;27.97;;;13.10;;
77123;SDS011;66079;47.646;19.130;2023-01-16T09:19:09;26.08;;;12.98;;
77123;SDS011;66079;47.646;19.130;2023-01-16T09:22:12;24.40;;;12.48;;
77123;SDS011;66079;47.646;19.130;2023-01-16T09:25:14;26.17;;;12.10;;
77123;SDS011;66079;47.646;19.130;2023-01-16T09:28:17;30.03;;;12.43;;
77123;SDS011;66079;47.646;19.130;2023-01-16T09:31:20;28.00;;;13.18;;
77123;SDS011;66079;47.646;19.130;2023-01-16T09:34:23;25.65;;;13.27;;
77123;SDS011;66079;47.646;19.130;2023-01-16T09:37:25;26.40;;;12.43;;
77123;SDS011;66079;47.646;19.130;2023-01-16T09:40:28;26.87;;;12.67;;
77123;SDS011;66079;47.646;19.130;2023-01-16T09:43:42;29.42;;;13.52;;
77123;SDS011;66079;47.646;19.130;2023-01-16T09:46:50;30.02;;;13.80;;
77123;SDS011;66079;47.646;19.130;2023-01-16T09:49:57;29.77;;;13.60;;
77123;SDS011;66079;47.646;19.130;2023-01-16T09:53:05;26.97;;;13.10;;
77123;SDS011;66079;47.646;19.130;2023-01-16T09:56:54;30.73;;;12.35;;
77123;SDS011;66079;47.646;19.130;2023-01-16T10:00:19;26.05;;;12.85;;
77123;SDS011;66079;47.646;19.130;2023-01-16T10:03:23;30.03;;;13.60;;
77123;SDS011;66079;47.646;19.130;2023-01-16T10:06:31;27.60;;;13.17;;
77123;SDS011;66079;47.646;19.130;2023-01-16T10:10:06;31.65;;;14.25;;
77123;SDS011;66079;47.646;19.130;2023-01-16T10:13:25;27.75;;;12.65;;
77123;SDS011;66079;47.646;19.130;2023-01-16T10:16:39;31.35;;;12.52;;
77123;SDS011;66079;47.646;19.130;2023-01-16T10:26:56;32.45;;;13.52;;
77123;SDS011;66079;47.646;19.130;2023-01-16T10:30:14;30.80;;;13.57;;
77123;SDS011;66079;47.646;19.130;2023-01-16T10:33:27;33.13;;;14.37;;
77123;SDS011;66079;47.646;19.130;2023-01-16T10:36:33;30.95;;;13.10;;
77123;SDS011;66079;47.646;19.130;2023-01-16T10:39:39;33.78;;;14.02;;
77123;SDS011;66079;47.646;19.130;2023-01-16T10:42:42;32.33;;;13.75;;
77123;SDS011;66079;47.646;19.130;2023-01-16T10:46:12;37.47;;;14.33;;
77123;SDS011;66079;47.646;19.130;2023-01-16T10:49:52;33.70;;;14.30;;
77123;SDS011;66079;47.646;19.130;2023-01-16T10:52:55;32.72;;;14.15;;
77123;SDS011;66079;47.646;19.130;2023-01-16T10:55:59;29.13;;;13.55;;
77123;SDS011;66079;47.646;19.130;2023-01-16T10:59:01;27.52;;;12.63;;
77123;SDS011;66079;47.646;19.130;2023-01-16T11:02:10;28.67;;;12.87;;
77123;SDS011;66079;47.646;19.130;2023-01-16T11:05:22;29.48;;;13.23;;
77123;SDS011;66079;47.646;19.130;2023-01-16T11:08:31;31.20;;;13.35;;
77123;SDS011;66079;47.646;19.130;2023-01-16T11:11:36;31.42;;;13.68;;
77123;SDS011;66079;47.646;19.130;2023-01-16T11:14:58;29.33;;;12.33;;
77123;SDS011;66079;47.646;19.130;2023-01-16T11:18:21;31.05;;;13.48;;
77123;SDS011;66079;47.646;19.130;2023-01-16T11:21:31;29.42;;;12.88;;
77123;SDS011;66079;47.646;19.130;2023-01-16T11:24:35;31.80;;;13.70;;
77123;SDS011;66079;47.646;19.130;2023-01-16T11:27:41;30.43;;;13.37;;
77123;SDS011;66079;47.646;19.130;2023-01-16T11:30:44;33.33;;;13.40;;
77123;SDS011;66079;47.646;19.130;2023-01-16T11:33:53;32.33;;;14.02;;
77123;SDS011;66079;47.646;19.130;2023-01-16T11:37:04;31.55;;;13.73;;
77123;SDS011;66079;47.646;19.130;2023-01-16T11:40:27;30.60;;;13.60;;
77123;SDS011;66079;47.646;19.130;2023-01-16T11:43:34;32.83;;;13.82;;
77123;SDS011;66079;47.646;19.130;2023-01-16T11:46:56;36.83;;;14.35;;
77123;SDS011;66079;47.646;19.130;2023-01-16T11:50:00;33.22;;;14.07;;
77123;SDS011;66079;47.646;19.130;2023-01-16T11:53:22;33.43;;;14.53;;
77123;SDS011;66079;47.646;19.130;2023-01-16T12:00:02;34.17;;;14.50;;
77123;SDS011;66079;47.646;19.130;2023-01-16T12:09:59;36.50;;;14.98;;
77123;SDS011;66079;47.646;19.130;2023-01-16T12:13:13;34.45;;;14.75;;
77123;SDS011;66079;47.646;19.130;2023-01-16T12:44:49;28.38;;;14.10;;
77123;SDS011;66079;47.646;19.130;2023-01-16T12:51:41;29.23;;;12.67;;
77123;SDS011;66079;47.646;19.130;2023-01-16T12:55:05;29.17;;;13.40;;
77123;SDS011;66079;47.646;19.130;2023-01-16T12:58:19;30.52;;;13.45;;
77123;SDS011;66079;47.646;19.130;2023-01-16T13:01:25;29.35;;;13.23;;
77123;SDS011;66079;47.646;19.130;2023-01-16T13:04:42;29.20;;;13.65;;
77123;SDS011;66079;47.646;19.130;2023-01-16T13:07:56;26.57;;;12.33;;
77123;SDS011;66079;47.646;19.130;2023-01-16T13:11:06;29.48;;;13.98;;
77123;SDS011;66079;47.646;19.130;2023-01-16T13:14:32;29.67;;;13.05;;
77123;SDS011;66079;47.646;19.130;2023-01-16T13:17:40;27.92;;;12.63;;
77123;SDS011;66079;47.646;19.130;2023-01-16T13:20:49;30.80;;;13.67;;
77123;SDS011;66079;47.646;19.130;2023-01-16T13:24:18;29.07;;;13.53;;
77123;SDS011;66079;47.646;19.130;2023-01-16T13:27:22;27.45;;;13.32;;
77123;SDS011;66079;47.646;19.130;2023-01-16T13:30:33;31.10;;;14.18;;
77123;SDS011;66079;47.646;19.130;2023-01-16T13:33:36;27.80;;;14.18;;
77123;SDS011;66079;47.646;19.130;2023-01-16T13:37:05;30.07;;;14.87;;
77123;SDS011;66079;47.646;19.130;2023-01-16T13:43:43;28.60;;;14.98;;
77123;SDS011;66079;47.646;19.130;2023-01-16T13:47:09;29.75;;;15.20;;
77123;SDS011;66079;47.646;19.130;2023-01-16T13:50:18;32.33;;;15.52;;
77123;SDS011;66079;47.646;19.130;2023-01-16T13:53:28;32.03;;;16.13;;
77123;SDS011;66079;47.646;19.130;2023-01-16T13:56:32;32.10;;;15.68;;
77123;SDS011;66079;47.646;19.130;2023-01-16T13:59:40;31.38;;;15.48;;
77123;SDS011;66079;47.646;19.130;2023-01-16T14:03:09;29.92;;;14.68;;
77123;SDS011;66079;47.646;19.130;2023-01-16T14:06:27;31.87;;;15.33;;
77123;SDS011;66079;47.646;19.130;2023-01-16T14:09:30;32.53;;;16.73;;
77123;SDS011;66079;47.646;19.130;2023-01-16T14:12:34;34.15;;;16.35;;
77123;SDS011;66079;47.646;19.130;2023-01-16T14:15:43;32.08;;;15.57;;
77123;SDS011;66079;47.646;19.130;2023-01-16T14:22:19;27.93;;;14.30;;
77123;SDS011;66079;47.646;19.130;2023-01-16T14:25:24;29.73;;;13.82;;
77123;SDS011;66079;47.646;19.130;2023-01-16T14:28:30;26.45;;;13.90;;
77123;SDS011;66079;47.646;19.130;2023-01-16T14:31:38;25.67;;;13.68;;
77123;SDS011;66079;47.646;19.130;2023-01-16T14:38:26;24.27;;;13.53;;
77123;SDS011;66079;47.646;19.130;2023-01-16T14:41:33;28.75;;;13.77;;
77123;SDS011;66079;47.646;19.130;2023-01-16T14:51:54;25.40;;;13.40;;
77123;SDS011;66079;47.646;19.130;2023-01-16T14:55:21;26.25;;;14.00;;
77123;SDS011;66079;47.646;19.130;2023-01-16T14:58:33;26.25;;;13.27;;
77123;SDS011;66079;47.646;19.130;2023-01-16T15:01:40;29.15;;;13.25;;
77123;SDS011;66079;47.646;19.130;2023-01-16T15:05:08;25.27;;;13.30;;
77123;SDS011;66079;47.646;19.130;2023-01-16T15:08:26;26.40;;;12.87;;
77123;SDS011;66079;47.646;19.130;2023-01-16T15:11:37;26.17;;;13.30;;
77123;SDS011;66079;47.646;19.130;2023-01-16T15:14:50;28.40;;;14.15;;
77123;SDS011;66079;47.646;19.130;2023-01-16T15:17:58;30.57;;;15.50;;
77123;SDS011;66079;47.646;19.130;2023-01-16T15:21:20;27.67;;;14.60;;
77123;SDS011;66079;47.646;19.130;2023-01-16T15:24:43;27.75;;;14.05;;
77123;SDS011;66079;47.646;19.130;2023-01-16T15:27:52;26.50;;;13.90;;
77123;SDS011;66079;47.646;19.130;2023-01-16T15:31:05;25.88;;;14.05;;
77123;SDS011;66079;47.646;19.130;2023-01-16T15:34:20;25.83;;;13.23;;
77123;SDS011;66079;47.646;19.130;2023-01-16T15:37:25;25.33;;;13.23;;
77123;SDS011;66079;47.646;19.130;2023-01-16T15:40:30;30.38;;;14.88;;
77123;SDS011;66079;47.646;19.130;2023-01-16T15:43:33;32.00;;;16.05;;
77123;SDS011;66079;47.646;19.130;2023-01-16T15:46:57;28.83;;;14.93;;
77123;SDS011;66079;47.646;19.130;2023-01-16T15:53:32;23.98;;;13.43;;
77123;SDS011;66079;47.646;19.130;2023-01-16T15:56:42;26.08;;;13.68;;
77123;SDS011;66079;47.646;19.130;2023-01-16T15:59:56;28.67;;;14.40;;
77123;SDS011;66079;47.646;19.130;2023-01-16T16:03:21;25.90;;;13.55;;
77123;SDS011;66079;47.646;19.130;2023-01-16T16:06:23;30.05;;;14.73;;
77123;SDS011;66079;47.646;19.130;2023-01-16T16:09:27;26.92;;;14.15;;
77123;SDS011;66079;47.646;19.130;2023-01-16T16:12:30;24.43;;;13.53;;
77123;SDS011;66079;47.646;19.130;2023-01-16T16:15:36;27.40;;;13.93;;
77123;SDS011;66079;47.646;19.130;2023-01-16T16:22:39;29.27;;;14.98;;
77123;SDS011;66079;47.646;19.130;2023-01-16T16:25:54;28.40;;;15.33;;
77123;SDS011;66079;47.646;19.130;2023-01-16T16:29:01;30.58;;;15.90;;
77123;SDS011;66079;47.646;19.130;2023-01-16T16:32:06;29.17;;;14.65;;
77123;SDS011;66079;47.646;19.130;2023-01-16T16:35:37;31.83;;;17.10;;
77123;SDS011;66079;47.646;19.130;2023-01-16T16:54:25;30.40;;;15.27;;
77123;SDS011;66079;47.646;19.130;2023-01-16T16:57:32;30.52;;;14.93;;
77123;SDS011;66079;47.646;19.130;2023-01-16T17:00:43;25.27;;;13.07;;
77123;SDS011;66079;47.646;19.130;2023-01-16T17:03:48;31.47;;;15.60;;
77123;SDS011;66079;47.646;19.130;2023-01-16T17:06:53;34.65;;;16.02;;
77123;SDS011;66079;47.646;19.130;2023-01-16T17:09:58;28.20;;;15.57;;
77123;SDS011;66079;47.646;19.130;2023-01-16T17:13:01;29.52;;;14.23;;
77123;SDS011;66079;47.646;19.130;2023-01-16T17:16:04;31.57;;;15.53;;
77123;SDS011;66079;47.646;19.130;2023-01-16T17:22:19;32.28;;;15.68;;
77123;SDS011;66079;47.646;19.130;2023-01-16T17:25:22;30.13;;;15.60;;
77123;SDS011;66079;47.646;19.130;2023-01-16T17:28:25;31.33;;;15.33;;
77123;SDS011;66079;47.646;19.130;2023-01-16T17:31:28;31.80;;;16.17;;
77123;SDS011;66079;47.646;19.130;2023-01-16T17:34:31;30.73;;;15.40;;
77123;SDS011;66079;47.646;19.130;2023-01-16T17:37:35;33.65;;;17.30;;
77123;SDS011;66079;47.646;19.130;2023-01-16T17:40:38;36.33;;;16.80;;
77123;SDS011;66079;47.646;19.130;2023-01-16T17:43:41;33.88;;;17.15;;
77123;SDS011;66079;47.646;19.130;2023-01-16T17:47:02;34.50;;;17.00;;
77123;SDS011;66079;47.646;19.130;2023-01-16T17:50:05;31.05;;;16.48;;
77123;SDS011;66079;47.646;19.130;2023-01-16T17:53:24;35.97;;;16.60;;
77123;SDS011;66079;47.646;19.130;2023-01-16T17:56:27;33.25;;;16.83;;
77123;SDS011;66079;47.646;19.130;2023-01-16T17:59:30;35.80;;;16.65;;
77123;SDS011;66079;47.646;19.130;2023-01-16T18:02:33;39.13;;;18.63;;
77123;SDS011;66079;47.646;19.130;2023-01-16T18:05:35;39.05;;;18.60;;
77123;SDS011;66079;47.646;19.130;2023-01-16T18:08:38;36.70;;;17.17;;
77123;SDS011;66079;47.646;19.130;2023-01-16T18:11:42;36.63;;;18.33;;
77123;SDS011;66079;47.646;19.130;2023-01-16T18:15:04;40.72;;;18.50;;
77123;SDS011;66079;47.646;19.130;2023-01-16T18:18:26;39.00;;;19.13;;
77123;SDS011;66079;47.646;19.130;2023-01-16T18:21:30;39.80;;;19.30;;
77123;SDS011;66079;47.646;19.130;2023-01-16T18:24:51;35.17;;;18.17;;
77123;SDS011;66079;47.646;19.130;2023-01-16T18:27:54;41.97;;;20.45;;
77123;SDS011;66079;47.646;19.130;2023-01-16T18:31:02;42.30;;;19.70;;
77123;SDS011;66079;47.646;19.130;2023-01-16T18:34:10;40.30;;;20.40;;
77123;SDS011;66079;47.646;19.130;2023-01-16T18:37:13;42.25;;;19.35;;
77123;SDS011;66079;47.646;19.130;2023-01-16T18:40:16;41.63;;;19.42;;
77123;SDS011;66079;47.646;19.130;2023-01-16T18:43:37;43.20;;;20.85;;
77123;SDS011;66079;47.646;19.130;2023-01-16T18:46:58;41.50;;;21.17;;
77123;SDS011;66079;47.646;19.130;2023-01-16T18:50:20;42.88;;;19.98;;
77123;SDS011;66079;47.646;19.130;2023-01-16T18:53:42;38.65;;;19.65;;
77123;SDS011;66079;47.646;19.130;2023-01-16T18:57:10;42.42;;;19.63;;
77123;SDS011;66079;47.646;19.130;2023-01-16T19:00:34;39.60;;;19.63;;
77123;SDS011;66079;47.646;19.130;2023-01-16T19:03:55;41.00;;;19.10;;
77123;SDS011;66079;47.646;19.130;2023-01-16T19:06:59;39.83;;;18.65;;
77123;SDS011;66079;47.646;19.130;2023-01-16T19:10:05;38.25;;;18.45;;
77123;SDS011;66079;47.646;19.130;2023-01-16T19:13:08;38.77;;;17.30;;
77123;SDS011;66079;47.646;19.130;2023-01-16T19:16:12;39.42;;;18.13;;
77123;SDS011;66079;47.646;19.130;2023-01-16T19:19:34;42.97;;;19.98;;
77123;SDS011;66079;47.646;19.130;2023-01-16T19:22:37;41.58;;;19.10;;
77123;SDS011;66079;47.646;19.130;2023-01-16T19:25:40;38.53;;;18.17;;
77123;SDS011;66079;47.646;19.130;2023-01-16T19:28:43;39.88;;;19.00;;
77123;SDS011;66079;47.646;19.130;2023-01-16T19:31:46;38.13;;;19.02;;
77123;SDS011;66079;47.646;19.130;2023-01-16T19:34:49;37.72;;;18.15;;
77123;SDS011;66079;47.646;19.130;2023-01-16T19:37:54;41.70;;;18.93;;
77123;SDS011;66079;47.646;19.130;2023-01-16T19:41:01;38.47;;;18.30;;
77123;SDS011;66079;47.646;19.130;2023-01-16T19:44:04;37.92;;;17.30;;
77123;SDS011;66079;47.646;19.130;2023-01-16T19:47:30;33.58;;;16.42;;
77123;SDS011;66079;47.646;19.130;2023-01-16T19:50:33;39.93;;;17.70;;
77123;SDS011;66079;47.646;19.130;2023-01-16T19:53:36;37.30;;;18.13;;
77123;SDS011;66079;47.646;19.130;2023-01-16T19:56:38;40.58;;;19.70;;
77123;SDS011;66079;47.646;19.130;2023-01-16T19:59:42;37.55;;;19.05;;
77123;SDS011;66079;47.646;19.130;2023-01-16T20:02:49;39.23;;;18.37;;
77123;SDS011;66079;47.646;19.130;2023-01-16T20:05:54;33.30;;;17.15;;
77123;SDS011;66079;47.646;19.130;2023-01-16T20:08:57;36.97;;;16.83;;
77123;SDS011;66079;47.646;19.130;2023-01-16T20:12:00;29.92;;;14.40;;
77123;SDS011;66079;47.646;19.130;2023-01-16T20:15:21;29.17;;;13.03;;
77123;SDS011;66079;47.646;19.130;2023-01-16T20:18:24;30.20;;;14.93;;
77123;SDS011;66079;47.646;19.130;2023-01-16T20:21:28;30.60;;;15.10;;